Time;durP1;ratioP1;P1;durP2;ratioP2;P2;SDS_P1;SDS_P2;PMS_P1;PMS_P2;Temp;Humidity;BMP_temperature;BMP_pressure;BME280_temperature;BME280_humidity;BME280_pressure;Samples;Min_cycle;Max_cycle;Signal;HPM_P1;HPM_P2
2022/02/21 00:02:15;;;;;;;28.70;19.85;;;;;;;;;;10277461;28;20099;-54
2022/02/21 00:07:13;;;;;;;23.05;18.85;;;;;;;;;;10270103;28;20071;-56
2022/02/21 00:12:14;;;;;;;23.10;17.63;;;;;;;;;;10264726;28;20091;-53
2022/02/21 00:17:13;;;;;;;23.40;19.00;;;;;;;;;;10271329;28;20072;-55
2022/02/21 00:22:11;;;;;;;23.55;18.02;;;;;;;;;;10271030;28;20072;-56
2022/02/21 00:27:10;;;;;;;19.58;16.15;;;;;;;;;;10264278;28;20076;-54
2022/02/21 00:32:10;;;;;;;26.08;17.50;;;;;;;;;;10272634;28;20072;-57
2022/02/21 00:37:08;;;;;;;23.20;17.17;;;;;;;;;;10271040;28;20077;-56
2022/02/21 00:42:07;;;;;;;30.88;21.50;;;;;;;;;;10264423;28;20445;-55
2022/02/21 00:47:06;;;;;;;37.35;26.08;;;;;;;;;;10284661;28;20084;-54
2022/02/21 00:52:06;;;;;;;50.92;33.80;;;;;;;;;;10272029;28;20102;-56
2022/02/21 00:57:04;;;;;;;66.88;40.97;;;;;;;;;;10288368;28;20060;-54
2022/02/21 01:02:03;;;;;;;24.15;19.38;;;;;;;;;;10268909;28;20083;-56
2022/02/21 01:07:01;;;;;;;19.33;14.20;;;;;;;;;;10265399;28;20080;-55
2022/02/21 01:12:01;;;;;;;22.40;16.27;;;;;;;;;;10265773;28;20466;-54
2022/02/21 01:16:59;;;;;;;19.05;15.65;;;;;;;;;;10269435;28;20083;-55
2022/02/21 01:21:57;;;;;;;18.42;14.85;;;;;;;;;;10271497;28;20450;-55
2022/02/21 01:26:56;;;;;;;19.08;15.32;;;;;;;;;;10275445;28;20048;-55
2022/02/21 01:31:55;;;;;;;20.92;17.25;;;;;;;;;;10274100;28;20456;-48
2022/02/21 01:36:54;;;;;;;18.80;15.52;;;;;;;;;;10275673;28;20079;-51
2022/02/21 01:41:52;;;;;;;28.23;20.92;;;;;;;;;;10275811;28;20045;-54
2022/02/21 01:46:50;;;;;;;67.53;40.47;;;;;;;;;;10274772;28;20549;-53
2022/02/21 01:51:51;;;;;;;59.15;36.78;;;;;;;;;;10271483;28;20079;-55
2022/02/21 01:56:49;;;;;;;48.33;31.75;;;;;;;;;;10274023;28;20041;-53
2022/02/21 02:01:48;;;;;;;31.08;21.95;;;;;;;;;;10274724;28;20087;-52
2022/02/21 02:06:47;;;;;;;43.55;31.77;;;;;;;;;;10269955;28;20498;-54
2022/02/21 02:11:46;;;;;;;20.40;17.58;;;;;;;;;;10278964;28;20073;-55
2022/02/21 02:16:45;;;;;;;18.45;13.88;;;;;;;;;;10268330;28;20417;-51
2022/02/21 02:21:43;;;;;;;18.85;14.18;;;;;;;;;;10270030;28;20421;-51
2022/02/21 02:26:43;;;;;;;20.88;13.88;;;;;;;;;;10270137;28;20091;-55
2022/02/21 02:31:41;;;;;;;18.23;14.60;;;;;;;;;;10270065;28;20073;-53
2022/02/21 02:36:39;;;;;;;15.27;12.82;;;;;;;;;;10269160;28;20049;-51
2022/02/21 02:41:38;;;;;;;18.30;14.35;;;;;;;;;;10293631;28;20132;-55
2022/02/21 02:46:37;;;;;;;15.93;11.75;;;;;;;;;;10295022;28;20056;-56
2022/02/21 02:51:36;;;;;;;17.00;13.15;;;;;;;;;;10276192;28;20069;-52
2022/02/21 02:56:34;;;;;;;12.15;10.55;;;;;;;;;;10281413;28;20065;-54
2022/02/21 03:01:33;;;;;;;21.27;15.23;;;;;;;;;;10275059;28;20140;-53
2022/02/21 03:06:33;;;;;;;16.58;11.88;;;;;;;;;;10275939;28;20079;-51
2022/02/21 03:11:31;;;;;;;14.77;11.70;;;;;;;;;;10279315;28;20079;-54
2022/02/21 03:16:30;;;;;;;16.98;12.82;;;;;;;;;;10320054;28;20059;-53
2022/02/21 03:21:28;;;;;;;20.00;11.20;;;;;;;;;;10270299;28;20069;-55
2022/02/21 03:26:28;;;;;;;16.48;10.40;;;;;;;;;;10277358;28;20048;-55
2022/02/21 03:31:26;;;;;;;15.93;9.75;;;;;;;;;;10272420;28;20073;-55
2022/02/21 03:36:24;;;;;;;12.45;10.80;;;;;;;;;;10275398;28;20048;-57
2022/02/21 03:41:23;;;;;;;14.85;10.48;;;;;;;;;;10275234;28;20085;-56
2022/02/21 03:46:22;;;;;;;14.82;9.63;;;;;;;;;;10274482;28;20088;-57
2022/02/21 03:51:21;;;;;;;11.45;9.57;;;;;;;;;;10271545;28;20084;-54
2022/02/21 03:56:19;;;;;;;14.07;10.02;;;;;;;;;;10273688;28;20076;-55
2022/02/21 04:01:17;;;;;;;12.25;9.57;;;;;;;;;;10275068;28;20045;-54
2022/02/21 04:06:17;;;;;;;14.15;10.35;;;;;;;;;;10278651;28;20080;-55
2022/02/21 04:11:15;;;;;;;13.40;10.27;;;;;;;;;;10278410;28;20076;-53
2022/02/21 04:16:14;;;;;;;15.20;9.40;;;;;;;;;;10275656;28;20048;-57
2022/02/21 04:21:12;;;;;;;12.35;9.93;;;;;;;;;;10271738;28;20053;-55
2022/02/21 04:26:12;;;;;;;13.77;10.23;;;;;;;;;;10276163;28;20052;-55
2022/02/21 04:31:11;;;;;;;14.50;10.52;;;;;;;;;;10268801;28;20077;-54
2022/02/21 04:36:09;;;;;;;14.75;9.45;;;;;;;;;;10275176;28;20079;-56
2022/02/21 04:41:07;;;;;;;14.27;9.95;;;;;;;;;;10271552;28;20075;-52
2022/02/21 04:46:07;;;;;;;15.27;13.00;;;;;;;;;;10276492;28;20053;-56
2022/02/21 04:51:05;;;;;;;14.38;12.07;;;;;;;;;;10276619;28;20081;-54
2022/02/21 04:56:04;;;;;;;12.18;10.00;;;;;;;;;;10274553;28;20037;-57
2022/02/21 05:01:02;;;;;;;12.35;8.88;;;;;;;;;;10270155;28;20084;-56
2022/02/21 05:06:02;;;;;;;11.35;9.00;;;;;;;;;;10270119;28;20048;-55
2022/02/21 05:11:00;;;;;;;12.55;8.98;;;;;;;;;;10268195;28;20037;-55
2022/02/21 05:15:59;;;;;;;14.27;8.80;;;;;;;;;;10265581;28;20067;-54
2022/02/21 05:20:57;;;;;;;15.40;10.52;;;;;;;;;;10269512;28;20065;-56
2022/02/21 05:25:57;;;;;;;12.50;10.30;;;;;;;;;;10273675;28;20077;-56
2022/02/21 05:30:55;;;;;;;11.70;10.45;;;;;;;;;;10265288;28;20135;-54
2022/02/21 05:35:53;;;;;;;15.75;10.70;;;;;;;;;;10258787;28;20087;-54
2022/02/21 05:40:51;;;;;;;16.40;10.32;;;;;;;;;;10266968;28;20072;-57
2022/02/21 05:45:51;;;;;;;13.07;9.20;;;;;;;;;;10271637;28;20088;-54
2022/02/21 05:50:49;;;;;;;11.38;9.15;;;;;;;;;;10272694;28;20065;-54
2022/02/21 05:55:48;;;;;;;16.33;10.43;;;;;;;;;;10255499;28;20084;-52
2022/02/21 06:00:48;;;;;;;18.23;11.68;;;;;;;;;;10264887;28;20450;-54
2022/02/21 06:05:48;;;;;;;17.00;12.60;;;;;;;;;;10260832;28;20094;-55
2022/02/21 06:10:47;;;;;;;15.32;10.50;;;;;;;;;;10252550;28;20079;-55
2022/02/21 06:15:45;;;;;;;14.25;11.10;;;;;;;;;;10264358;28;20084;-57
2022/02/21 06:20:48;;;;;;;12.57;9.77;;;;;;;;;;10275166;28;20080;-55
2022/02/21 06:25:47;;;;;;;10.95;8.60;;;;;;;;;;10276549;28;20088;-55
2022/02/21 06:30:45;;;;;;;20.27;14.82;;;;;;;;;;10275252;28;20088;-55
2022/02/21 06:35:45;;;;;;;15.88;11.35;;;;;;;;;;10272605;28;20556;-57
2022/02/21 06:40:45;;;;;;;17.20;14.70;;;;;;;;;;10273870;28;20082;-55
2022/02/21 06:45:43;;;;;;;14.73;10.18;;;;;;;;;;10273998;28;20474;-55
2022/02/21 06:50:41;;;;;;;14.63;10.27;;;;;;;;;;10280623;28;20070;-53
2022/02/21 06:55:40;;;;;;;18.38;14.65;;;;;;;;;;10279354;28;20550;-53
2022/02/21 07:00:39;;;;;;;13.95;10.32;;;;;;;;;;10273938;28;20075;-54
2022/02/21 07:05:39;;;;;;;13.25;10.10;;;;;;;;;;10272580;28;20068;-54
2022/02/21 07:10:38;;;;;;;15.25;10.82;;;;;;;;;;10273900;28;20072;-55
2022/02/21 07:15:36;;;;;;;18.40;12.95;;;;;;;;;;10273402;28;20357;-54
2022/02/21 07:20:36;;;;;;;19.55;12.57;;;;;;;;;;10274153;28;20049;-55
2022/02/21 07:25:34;;;;;;;15.20;12.10;;;;;;;;;;10273926;28;20068;-55
2022/02/21 07:30:33;;;;;;;14.73;12.10;;;;;;;;;;10273105;28;20076;-53
2022/02/21 07:35:32;;;;;;;19.88;16.00;;;;;;;;;;10272719;28;20073;-54
2022/02/21 07:40:32;;;;;;;21.60;15.80;;;;;;;;;;10273551;28;20228;-55
2022/02/21 07:45:30;;;;;;;14.30;11.75;;;;;;;;;;10273458;28;20049;-54
2022/02/21 07:50:30;;;;;;;19.60;13.32;;;;;;;;;;10278532;28;20450;-57
2022/02/21 07:55:29;;;;;;;19.90;14.88;;;;;;;;;;10276318;28;20076;-55
2022/02/21 08:00:28;;;;;;;41.42;33.10;;;;;;;;;;10272860;28;20076;-55
2022/02/21 08:05:27;;;;;;;17.73;13.10;;;;;;;;;;10270228;28;20077;-56
2022/02/21 08:10:25;;;;;;;17.52;12.52;;;;;;;;;;10281163;28;20080;-56
2022/02/21 08:15:24;;;;;;;13.30;9.15;;;;;;;;;;10267849;28;20080;-56
2022/02/21 08:20:24;;;;;;;46.60;27.00;;;;;;;;;;10267310;28;20543;-53
2022/02/21 08:25:22;;;;;;;50.40;33.05;;;;;;;;;;10262103;28;20446;-56
2022/02/21 08:30:22;;;;;;;21.73;14.48;;;;;;;;;;10267536;28;20064;-57
2022/02/21 08:35:20;;;;;;;12.50;10.25;;;;;;;;;;10270201;28;20068;-50
2022/02/21 08:40:21;;;;;;;14.80;11.00;;;;;;;;;;10266878;28;20174;-56
2022/02/21 08:45:19;;;;;;;19.15;14.13;;;;;;;;;;10270758;28;20080;-55
2022/02/21 08:50:19;;;;;;;20.20;13.88;;;;;;;;;;10267738;28;20099;-56
2022/02/21 08:55:18;;;;;;;14.50;10.95;;;;;;;;;;10262245;28;20072;-55
2022/02/21 09:00:18;;;;;;;12.85;9.25;;;;;;;;;;10266076;28;20080;-52
2022/02/21 09:05:16;;;;;;;10.18;7.63;;;;;;;;;;10260110;28;20087;-57
2022/02/21 09:10:15;;;;;;;22.85;18.88;;;;;;;;;;10263303;28;20065;-55
2022/02/21 09:15:13;;;;;;;12.88;7.55;;;;;;;;;;10264887;28;20112;-54
2022/02/21 09:20:14;;;;;;;13.25;7.97;;;;;;;;;;10276521;28;20075;-56
2022/02/21 09:25:12;;;;;;;8.80;6.32;;;;;;;;;;10272237;28;20076;-56
2022/02/21 09:30:11;;;;;;;10.63;6.75;;;;;;;;;;10269810;28;20465;-55
2022/02/21 09:35:10;;;;;;;10.68;6.45;;;;;;;;;;10269345;28;20076;-56
2022/02/21 09:40:11;;;;;;;9.80;6.68;;;;;;;;;;10271503;28;20132;-55
2022/02/21 09:45:10;;;;;;;9.73;6.63;;;;;;;;;;10270025;28;20080;-56
2022/02/21 09:50:09;;;;;;;17.42;12.27;;;;;;;;;;10268714;28;20106;-57
2022/02/21 09:55:08;;;;;;;7.65;6.85;;;;;;;;;;10274459;28;20076;-57
2022/02/21 10:00:09;;;;;;;11.07;7.07;;;;;;;;;;10277960;28;20456;-55
2022/02/21 10:05:11;;;;;;;10.02;6.65;;;;;;;;;;10277235;28;20079;-56
2022/02/21 10:10:10;;;;;;;10.15;7.30;;;;;;;;;;10277333;28;20076;-55
2022/02/21 10:15:17;;;;;;;10.05;6.63;;;;;;;;;;10276197;28;20097;-56
2022/02/21 10:20:16;;;;;;;7.65;5.18;;;;;;;;;;10275101;28;20473;-56
2022/02/21 10:25:15;;;;;;;4.90;4.25;;;;;;;;;;10281545;28;20080;-55
2022/02/21 10:30:16;;;;;;;6.07;4.10;;;;;;;;;;10281791;28;20080;-55
2022/02/21 10:35:39;;;;;;;6.07;4.13;;;;;;;;;;10320074;28;20071;-55
2022/02/21 10:40:38;;;;;;;7.35;4.63;;;;;;;;;;10274642;28;20085;-56
2022/02/21 10:45:37;;;;;;;5.40;4.88;;;;;;;;;;10275644;28;20096;-54
2022/02/21 10:50:38;;;;;;;7.32;4.63;;;;;;;;;;10275270;28;20089;-56
2022/02/21 10:55:36;;;;;;;9.15;5.88;;;;;;;;;;10275351;28;20096;-55
2022/02/21 11:00:34;;;;;;;7.75;5.13;;;;;;;;;;10274241;28;20073;-55
2022/02/21 11:05:34;;;;;;;7.20;5.95;;;;;;;;;;10274767;28;20095;-55
2022/02/21 11:10:35;;;;;;;13.07;6.85;;;;;;;;;;10279357;28;20494;-56
2022/02/21 11:15:34;;;;;;;7.63;4.90;;;;;;;;;;10279579;28;20099;-56
2022/02/21 11:20:32;;;;;;;4.30;3.60;;;;;;;;;;10279401;28;20045;-56
2022/02/21 11:25:39;;;;;;;11.70;7.78;;;;;;;;;;10271164;28;20076;-56
2022/02/21 11:30:38;;;;;;;5.00;4.10;;;;;;;;;;10274007;28;20080;-56
2022/02/21 11:35:37;;;;;;;5.82;5.10;;;;;;;;;;10273709;28;20471;-56
2022/02/21 11:40:52;;;;;;;5.68;4.75;;;;;;;;;;10276874;28;20068;-57
2022/02/21 11:45:54;;;;;;;5.85;5.10;;;;;;;;;;10271220;28;20072;-54
2022/02/21 11:50:59;;;;;;;6.85;5.43;;;;;;;;;;10273962;28;20060;-55
2022/02/21 11:56:03;;;;;;;7.88;5.07;;;;;;;;;;10269653;28;20080;-56
2022/02/21 12:01:09;;;;;;;7.07;4.95;;;;;;;;;;10272732;28;20076;-56
2022/02/21 12:06:27;;;;;;;5.75;4.82;;;;;;;;;;10270557;28;20079;-56
2022/02/21 12:11:42;;;;;;;4.68;4.05;;;;;;;;;;10289371;28;20499;-55
2022/02/21 12:16:59;;;;;;;3.97;3.55;;;;;;;;;;10283190;28;20073;-56
2022/02/21 12:22:14;;;;;;;5.35;3.92;;;;;;;;;;10298823;28;20079;-56
2022/02/21 12:27:15;;;;;;;5.00;4.50;;;;;;;;;;10314640;28;20068;-55
2022/02/21 12:32:16;;;;;;;7.85;4.05;;;;;;;;;;10296203;28;20072;-57
2022/02/21 12:37:14;;;;;;;11.30;6.85;;;;;;;;;;10277410;28;20469;-55
2022/02/21 12:42:16;;;;;;;6.25;4.35;;;;;;;;;;10275096;28;20056;-52
2022/02/21 12:47:14;;;;;;;5.05;3.72;;;;;;;;;;10275160;28;20075;-56
2022/02/21 12:52:14;;;;;;;4.95;4.05;;;;;;;;;;10274724;28;20465;-57
2022/02/21 12:57:13;;;;;;;7.07;4.25;;;;;;;;;;10262037;28;20079;-57
2022/02/21 13:02:15;;;;;;;14.90;4.90;;;;;;;;;;10267704;28;20073;-57
2022/02/21 13:07:14;;;;;;;4.95;4.22;;;;;;;;;;10270652;28;20076;-57
2022/02/21 13:12:18;;;;;;;6.68;4.07;;;;;;;;;;10270428;28;20076;-56
2022/02/21 13:17:16;;;;;;;7.28;3.58;;;;;;;;;;10269900;28;20175;-56
2022/02/21 13:22:16;;;;;;;5.38;4.68;;;;;;;;;;10269291;28;20083;-57
2022/02/21 13:27:21;;;;;;;6.55;3.85;;;;;;;;;;10271793;28;20067;-57
2022/02/21 13:32:25;;;;;;;5.93;3.65;;;;;;;;;;10267334;28;20053;-55
2022/02/21 13:37:25;;;;;;;7.25;4.43;;;;;;;;;;10303766;28;20084;-53
2022/02/21 13:42:41;;;;;;;7.10;4.43;;;;;;;;;;10267491;28;20052;-57
2022/02/21 13:47:41;;;;;;;6.20;3.95;;;;;;;;;;10265572;28;20084;-55
2022/02/21 13:52:50;;;;;;;6.72;4.60;;;;;;;;;;10268254;28;20084;-55
2022/02/21 13:57:58;;;;;;;8.50;5.60;;;;;;;;;;10264410;28;20071;-57
2022/02/21 14:02:57;;;;;;;7.32;5.10;;;;;;;;;;10266479;28;20087;-57
2022/02/21 14:07:56;;;;;;;11.05;7.43;;;;;;;;;;10264076;28;20076;-56
2022/02/21 14:12:55;;;;;;;8.70;6.07;;;;;;;;;;10266999;28;20547;-56
2022/02/21 14:17:53;;;;;;;8.00;3.85;;;;;;;;;;10265594;28;20075;-56
2022/02/21 14:22:52;;;;;;;7.22;4.80;;;;;;;;;;10273665;28;20450;-56
2022/02/21 14:27:52;;;;;;;7.00;5.65;;;;;;;;;;10272684;28;20080;-56
2022/02/21 14:32:50;;;;;;;9.18;4.20;;;;;;;;;;10272752;28;20427;-57
2022/02/21 14:38:09;;;;;;;4.50;3.40;;;;;;;;;;10271749;28;20079;-57
2022/02/21 14:43:08;;;;;;;8.43;6.57;;;;;;;;;;10275112;28;20624;-57
2022/02/21 14:48:07;;;;;;;5.20;3.75;;;;;;;;;;10274945;28;20090;-56
2022/02/21 14:53:05;;;;;;;4.55;4.03;;;;;;;;;;10274674;28;20079;-56
2022/02/21 14:58:05;;;;;;;7.72;5.72;;;;;;;;;;10274307;28;20079;-56
2022/02/21 15:03:03;;;;;;;14.25;8.82;;;;;;;;;;10274195;28;20142;-56
2022/02/21 15:08:01;;;;;;;9.95;7.45;;;;;;;;;;10273449;28;20505;-56
2022/02/21 15:13:00;;;;;;;11.95;6.15;;;;;;;;;;10279220;28;20080;-57
2022/02/21 15:18:00;;;;;;;11.25;7.25;;;;;;;;;;10278900;28;20076;-54
2022/02/21 15:23:06;;;;;;;12.20;9.15;;;;;;;;;;10278249;28;20068;-58
2022/02/21 15:28:04;;;;;;;19.63;13.07;;;;;;;;;;10265489;28;20064;-56
2022/02/21 15:33:04;;;;;;;18.27;10.95;;;;;;;;;;10272867;28;20080;-57
2022/02/21 15:38:02;;;;;;;25.95;18.58;;;;;;;;;;10277800;28;20501;-57
2022/02/21 15:43:01;;;;;;;32.28;20.25;;;;;;;;;;10277688;28;20068;-55
2022/02/21 15:48:02;;;;;;;32.60;21.52;;;;;;;;;;10277507;28;20422;-55
2022/02/21 15:53:02;;;;;;;35.45;23.45;;;;;;;;;;10277076;28;20433;-56
2022/02/21 15:58:00;;;;;;;40.10;26.92;;;;;;;;;;10268281;28;20663;-54
2022/02/21 16:02:58;;;;;;;35.33;24.50;;;;;;;;;;10269445;28;20079;-55
2022/02/21 16:07:56;;;;;;;40.42;25.70;;;;;;;;;;10268397;28;20081;-56
2022/02/21 16:12:56;;;;;;;36.97;21.85;;;;;;;;;;10273384;28;20529;-58
2022/02/21 16:17:54;;;;;;;26.35;17.48;;;;;;;;;;10315847;28;20072;-56
2022/02/21 16:22:52;;;;;;;31.50;21.45;;;;;;;;;;10297997;28;20041;-57
2022/02/21 16:27:51;;;;;;;38.53;25.60;;;;;;;;;;10268029;28;20076;-56
2022/02/21 16:32:50;;;;;;;30.38;18.92;;;;;;;;;;10266483;28;20073;-57
2022/02/21 16:37:49;;;;;;;38.60;25.75;;;;;;;;;;10269918;28;20080;-57
2022/02/21 16:42:47;;;;;;;28.88;18.52;;;;;;;;;;10275590;28;20628;-57
2022/02/21 16:47:45;;;;;;;37.08;23.35;;;;;;;;;;10275497;28;20083;-57
2022/02/21 16:52:45;;;;;;;33.65;21.63;;;;;;;;;;10266377;28;20530;-57
2022/02/21 16:57:44;;;;;;;32.97;24.23;;;;;;;;;;10276186;28;20076;-57
2022/02/21 17:02:42;;;;;;;46.35;35.20;;;;;;;;;;10274642;28;20068;-57
2022/02/21 17:07:40;;;;;;;54.80;36.72;;;;;;;;;;10274716;28;20092;-57
2022/02/21 17:12:40;;;;;;;45.65;32.20;;;;;;;;;;10263502;28;20057;-57
2022/02/21 17:17:38;;;;;;;33.33;21.98;;;;;;;;;;10274114;28;20064;-56
2022/02/21 17:22:37;;;;;;;32.47;24.35;;;;;;;;;;10282586;28;20490;-55
2022/02/21 17:27:36;;;;;;;37.55;29.35;;;;;;;;;;10275699;28;20072;-56
2022/02/21 17:32:35;;;;;;;42.38;33.20;;;;;;;;;;10273210;28;20084;-57
2022/02/21 17:37:34;;;;;;;46.78;32.63;;;;;;;;;;10273367;28;20072;-55
2022/02/21 17:42:32;;;;;;;42.88;28.90;;;;;;;;;;10263003;28;20498;-55
2022/02/21 17:47:30;;;;;;;28.85;18.73;;;;;;;;;;10302100;28;20052;-55
2022/02/21 17:52:31;;;;;;;26.27;18.77;;;;;;;;;;10248205;28;20072;-52
2022/02/21 17:57:30;;;;;;;29.17;20.38;;;;;;;;;;10255962;28;20079;-54
2022/02/21 18:02:29;;;;;;;16.35;11.70;;;;;;;;;;10262768;28;20065;-53
2022/02/21 18:07:27;;;;;;;47.40;27.48;;;;;;;;;;10255243;28;20506;-54
2022/02/21 18:12:27;;;;;;;44.60;24.80;;;;;;;;;;10265847;28;20069;-56
2022/02/21 18:17:25;;;;;;;13.43;10.70;;;;;;;;;;10263791;28;20072;-56
2022/02/21 18:22:24;;;;;;;17.42;11.80;;;;;;;;;;10277610;28;20076;-56
2022/02/21 18:27:22;;;;;;;25.42;15.30;;;;;;;;;;10268726;28;20064;-54
2022/02/21 18:32:21;;;;;;;24.35;14.68;;;;;;;;;;10268302;28;20478;-52
2022/02/21 18:37:20;;;;;;;20.02;10.80;;;;;;;;;;10268690;28;20073;-53
2022/02/21 18:42:18;;;;;;;15.52;9.88;;;;;;;;;;10265957;28;20061;-53
2022/02/21 18:47:16;;;;;;;15.65;8.27;;;;;;;;;;10270886;28;20144;-54
2022/02/21 18:52:16;;;;;;;6.75;5.47;;;;;;;;;;10276098;28;20450;-56
2022/02/21 18:57:15;;;;;;;16.40;11.20;;;;;;;;;;10266908;28;20076;-56
2022/02/21 19:02:13;;;;;;;55.83;34.30;;;;;;;;;;10271470;28;20064;-55
2022/02/21 19:07:11;;;;;;;37.05;22.65;;;;;;;;;;10265850;28;20498;-54
2022/02/21 19:12:12;;;;;;;23.63;12.77;;;;;;;;;;10265977;28;20076;-54
2022/02/21 19:17:11;;;;;;;42.63;26.80;;;;;;;;;;10255486;28;20088;-53
2022/02/21 19:22:09;;;;;;;22.73;13.38;;;;;;;;;;10265550;28;20502;-55
2022/02/21 19:27:08;;;;;;;17.15;11.40;;;;;;;;;;10271432;28;20071;-56
2022/02/21 19:32:07;;;;;;;11.77;8.00;;;;;;;;;;10272968;28;20077;-56
2022/02/21 19:37:06;;;;;;;14.07;7.68;;;;;;;;;;10273520;28;20076;-55
2022/02/21 19:42:04;;;;;;;119.13;71.32;;;;;;;;;;10266690;28;20484;-56
2022/02/21 19:47:03;;;;;;;22.52;15.00;;;;;;;;;;10264624;28;20529;-54
2022/02/21 19:52:02;;;;;;;34.08;20.00;;;;;;;;;;10259977;28;20128;-55
2022/02/21 19:57:01;;;;;;;37.67;25.85;;;;;;;;;;10265906;28;20073;-54
2022/02/21 20:01:59;;;;;;;22.38;16.52;;;;;;;;;;10274957;28;20057;-55
2022/02/21 20:07:00;;;;;;;17.98;11.82;;;;;;;;;;10284823;28;20071;-54
2022/02/21 20:12:03;;;;;;;34.35;23.02;;;;;;;;;;10278518;28;20056;-56
2022/02/21 20:17:03;;;;;;;16.88;10.82;;;;;;;;;;10271833;28;20087;-54
2022/02/21 20:22:05;;;;;;;27.40;16.90;;;;;;;;;;10270843;28;20040;-58
2022/02/21 20:27:06;;;;;;;51.80;34.00;;;;;;;;;;10258758;28;20068;-56
2022/02/21 20:32:06;;;;;;;17.15;12.00;;;;;;;;;;10262893;28;20064;-54
2022/02/21 20:37:08;;;;;;;15.77;10.82;;;;;;;;;;10263104;28;20540;-56
2022/02/21 20:42:10;;;;;;;22.00;10.13;;;;;;;;;;10263531;28;20056;-56
2022/02/21 20:47:09;;;;;;;16.73;11.15;;;;;;;;;;10265254;28;20057;-54
2022/02/21 20:52:12;;;;;;;17.13;12.45;;;;;;;;;;10287336;28;20435;-55
2022/02/21 20:57:14;;;;;;;14.02;11.77;;;;;;;;;;10267993;28;20077;-55
2022/02/21 21:02:13;;;;;;;14.35;11.00;;;;;;;;;;10275981;28;20073;-54
2022/02/21 21:07:14;;;;;;;18.13;12.65;;;;;;;;;;10263383;28;20079;-56
2022/02/21 21:12:14;;;;;;;19.58;14.70;;;;;;;;;;10270164;28;20496;-55
2022/02/21 21:17:14;;;;;;;28.23;16.70;;;;;;;;;;10269525;28;20072;-55
2022/02/21 21:22:12;;;;;;;15.18;11.27;;;;;;;;;;10266031;28;20069;-55
2022/02/21 21:27:10;;;;;;;20.02;12.23;;;;;;;;;;10269237;28;20064;-53
2022/02/21 21:32:08;;;;;;;17.55;12.70;;;;;;;;;;10291816;28;20068;-56
2022/02/21 21:37:08;;;;;;;15.50;11.48;;;;;;;;;;10269194;28;20060;-55
2022/02/21 21:42:07;;;;;;;12.95;10.90;;;;;;;;;;10274261;28;20072;-55
2022/02/21 21:47:05;;;;;;;15.00;13.45;;;;;;;;;;10266829;28;20104;-56
2022/02/21 21:52:04;;;;;;;13.00;11.70;;;;;;;;;;10259162;28;20073;-54
2022/02/21 21:57:04;;;;;;;15.82;12.98;;;;;;;;;;10269206;28;20079;-56
2022/02/21 22:02:03;;;;;;;20.25;12.32;;;;;;;;;;10272624;28;20052;-56
2022/02/21 22:07:01;;;;;;;17.17;12.07;;;;;;;;;;10265917;28;20041;-55
2022/02/21 22:12:00;;;;;;;19.20;12.27;;;;;;;;;;10281170;28;20076;-55
2022/02/21 22:16:59;;;;;;;15.85;10.95;;;;;;;;;;10270199;28;20462;-57
2022/02/21 22:21:57;;;;;;;15.63;12.38;;;;;;;;;;10296564;28;20084;-55
2022/02/21 22:26:56;;;;;;;13.95;11.88;;;;;;;;;;10314008;28;20103;-55
2022/02/21 22:31:54;;;;;;;16.38;11.68;;;;;;;;;;10314193;28;20060;-56
2022/02/21 22:36:54;;;;;;;19.52;13.23;;;;;;;;;;10300156;28;20069;-53
2022/02/21 22:41:52;;;;;;;17.98;13.23;;;;;;;;;;10266950;28;20157;-55
2022/02/21 22:46:52;;;;;;;21.88;13.25;;;;;;;;;;10267610;28;20061;-51
2022/02/21 22:51:50;;;;;;;16.48;12.77;;;;;;;;;;10273261;28;20465;-55
2022/02/21 22:56:50;;;;;;;14.30;12.52;;;;;;;;;;10276764;28;20056;-57
2022/02/21 23:01:48;;;;;;;17.08;13.00;;;;;;;;;;10281683;28;20084;-54
2022/02/21 23:07:59;;;;;;;20.35;13.63;;;;;;;;;;10275523;28;20499;-55
2022/02/21 23:12:07;;;;;;;17.80;12.85;;;;;;;;;;10299805;28;20048;-54
2022/02/21 23:17:06;;;;;;;19.15;14.77;;;;;;;;;;10280391;28;20052;-53
2022/02/21 23:22:04;;;;;;;17.92;14.18;;;;;;;;;;10279836;28;20102;-57
2022/02/21 23:27:02;;;;;;;16.15;14.43;;;;;;;;;;10280230;28;20049;-56
2022/02/21 23:32:02;;;;;;;20.10;16.27;;;;;;;;;;10273892;28;20104;-54
2022/02/21 23:37:00;;;;;;;18.23;14.85;;;;;;;;;;10283678;28;20073;-56
2022/02/21 23:41:58;;;;;;;17.60;14.63;;;;;;;;;;10273460;28;20088;-56
2022/02/21 23:46:57;;;;;;;20.08;14.43;;;;;;;;;;10272458;28;20419;-56
2022/02/21 23:51:57;;;;;;;20.75;15.35;;;;;;;;;;10288227;28;20136;-54
2022/02/21 23:56:56;;;;;;;20.88;15.65;;;;;;;;;;10275372;28;20063;-55
